createdAt,value
2018-04-08T00:00:24.584Z,7.90
2018-04-08T00:02:52.105Z,10.43
2018-04-08T00:05:19.650Z,10.63
2018-04-08T00:07:47.936Z,13.93
2018-04-08T00:10:15.461Z,13.90
2018-04-08T00:12:44.509Z,12.17
2018-04-08T00:15:12.084Z,9.90
2018-04-08T00:17:39.592Z,8.57
2018-04-08T00:20:08.712Z,9.50
2018-04-08T00:22:37.039Z,8.87
2018-04-08T00:25:04.552Z,8.63
2018-04-08T00:27:32.867Z,11.60
2018-04-08T00:30:00.393Z,12.33
2018-04-08T00:32:28.676Z,7.70
2018-04-08T00:34:56.223Z,8.90
2018-04-08T00:37:25.264Z,9.37
2018-04-08T00:39:55.380Z,6.87
2018-04-08T00:42:23.679Z,9.07
2018-04-08T00:44:51.242Z,9.30
2018-04-08T00:47:18.772Z,8.07
2018-04-08T00:49:47.106Z,7.47
2018-04-08T00:52:14.612Z,7.40
2018-04-08T00:54:42.125Z,7.83
2018-04-08T00:57:09.660Z,7.53
2018-04-08T00:59:37.954Z,6.93
2018-04-08T01:02:05.471Z,9.20
2018-04-08T01:04:33.912Z,7.50
2018-04-08T01:07:01.429Z,7.40
2018-04-08T01:09:29.748Z,7.47
2018-04-08T01:11:57.295Z,7.03
2018-04-08T01:14:25.579Z,9.47
2018-04-08T01:16:53.855Z,7.10
2018-04-08T01:19:22.161Z,10.73
2018-04-08T01:21:49.681Z,7.13
2018-04-08T01:24:17.202Z,7.30
2018-04-08T01:26:44.748Z,8.23
2018-04-08T01:29:12.273Z,7.83
2018-04-08T01:31:39.789Z,7.80
2018-04-08T01:34:07.336Z,6.93
2018-04-08T01:36:34.903Z,8.40
2018-04-08T01:39:03.180Z,7.17
2018-04-08T01:41:30.847Z,7.90
2018-04-08T01:43:59.130Z,7.57
2018-04-08T01:46:26.643Z,7.67
2018-04-08T01:48:54.171Z,7.20
2018-04-08T01:51:21.710Z,7.30
2018-04-08T01:53:50.004Z,8.53
2018-04-08T01:56:17.532Z,7.97
2018-04-08T01:58:45.047Z,11.17
2018-04-08T02:01:12.559Z,8.37
2018-04-08T02:03:40.860Z,8.10
2018-04-08T02:06:09.152Z,8.87
2018-04-08T02:08:37.431Z,8.07
2018-04-08T02:11:05.748Z,8.00
2018-04-08T02:13:33.301Z,8.43
2018-04-08T02:16:00.806Z,7.77
2018-04-08T02:18:28.342Z,8.10
2018-04-08T02:20:55.863Z,8.10
2018-04-08T02:23:24.152Z,7.87
2018-04-08T02:25:52.453Z,8.30
2018-04-08T02:28:19.962Z,8.40
2018-04-08T02:30:48.976Z,8.90
2018-04-08T02:33:17.288Z,8.47
2018-04-08T02:35:44.811Z,9.23
2018-04-08T02:38:13.092Z,9.43
2018-04-08T02:40:40.877Z,8.73
2018-04-08T02:43:09.372Z,8.57
2018-04-08T02:45:37.648Z,9.40
2018-04-08T02:48:05.960Z,10.57
2018-04-08T02:50:33.485Z,10.17
2018-04-08T02:53:01.756Z,8.00
2018-04-08T02:55:29.288Z,8.23
2018-04-08T02:57:56.814Z,8.27
2018-04-08T03:00:24.333Z,10.20
2018-04-08T03:02:51.857Z,9.80
2018-04-08T03:05:19.385Z,10.53
2018-04-08T03:07:46.999Z,9.60
2018-04-08T03:10:14.559Z,12.43
2018-04-08T03:12:42.100Z,8.93
2018-04-08T03:15:10.385Z,11.93
2018-04-08T03:17:38.684Z,12.90
2018-04-08T03:20:06.219Z,11.77
2018-04-08T03:22:35.626Z,10.67
2018-04-08T03:25:03.921Z,11.10
2018-04-08T03:27:31.461Z,12.73
2018-04-08T03:30:00.413Z,11.60
2018-04-08T03:32:28.013Z,11.87
2018-04-08T03:34:55.955Z,11.43
2018-04-08T03:37:23.501Z,11.83
2018-04-08T03:39:51.166Z,11.73
2018-04-08T03:42:18.736Z,11.57
2018-04-08T03:44:46.293Z,11.53
2018-04-08T03:47:13.854Z,12.10
2018-04-08T03:49:41.383Z,11.57
2018-04-08T03:52:09.675Z,11.50
2018-04-08T03:54:37.993Z,11.00
2018-04-08T03:57:05.496Z,12.47
2018-04-08T03:59:33.031Z,13.40
2018-04-08T04:02:00.564Z,13.03
2018-04-08T04:04:28.843Z,12.83
2018-04-08T04:06:57.130Z,12.53
2018-04-08T04:09:24.687Z,11.67
2018-04-08T04:11:52.972Z,18.60
2018-04-08T04:14:21.265Z,11.53
2018-04-08T04:16:49.149Z,12.77
2018-04-08T04:19:28.605Z,13.23
2018-04-08T04:22:08.208Z,12.30
2018-04-08T04:24:47.582Z,11.40
2018-04-08T04:27:15.116Z,11.63
2018-04-08T04:29:42.625Z,14.17
2018-04-08T04:32:10.146Z,12.60
2018-04-08T04:34:37.722Z,12.37
2018-04-08T04:37:05.244Z,11.60
2018-04-08T04:39:33.548Z,11.70
2018-04-08T04:42:01.110Z,10.90
2018-04-08T04:44:28.644Z,12.13
2018-04-08T04:46:56.241Z,11.33
2018-04-08T04:49:23.792Z,12.07
2018-04-08T04:51:52.093Z,13.07
2018-04-08T04:54:19.628Z,13.43
2018-04-08T04:56:47.952Z,14.80
2018-04-08T04:59:15.469Z,14.33
2018-04-08T05:01:43.028Z,15.03
2018-04-08T05:04:10.637Z,14.20
2018-04-08T05:06:38.159Z,15.00
2018-04-08T05:09:06.484Z,14.90
2018-04-08T05:11:34.015Z,15.47
2018-04-08T05:14:02.313Z,16.83
2018-04-08T05:16:29.828Z,16.30
2018-04-08T05:18:57.387Z,15.47
2018-04-08T05:21:24.907Z,15.13
2018-04-08T05:23:52.438Z,15.73
2018-04-08T05:26:20.764Z,17.87
2018-04-08T05:28:48.287Z,15.50
2018-04-08T05:31:17.414Z,16.40
2018-04-08T05:33:45.729Z,17.07
2018-04-08T05:36:13.254Z,15.70
2018-04-08T05:38:41.563Z,15.97
2018-04-08T05:41:09.104Z,19.27
2018-04-08T05:43:37.395Z,16.23
2018-04-08T05:46:04.968Z,17.93
2018-04-08T05:48:32.541Z,16.83
2018-04-08T05:51:00.099Z,17.20
2018-04-08T05:53:28.370Z,15.43
2018-04-08T05:55:55.903Z,18.20
2018-04-08T05:58:23.419Z,16.27
2018-04-08T06:00:50.948Z,16.67
2018-04-08T06:03:19.256Z,16.27
2018-04-08T06:05:46.811Z,17.60
2018-04-08T06:08:14.353Z,18.70
2018-04-08T06:10:41.916Z,18.03
2018-04-08T06:13:10.209Z,17.70
2018-04-08T06:15:38.491Z,16.70
2018-04-08T06:18:07.680Z,19.87
2018-04-08T06:20:37.716Z,18.43
2018-04-08T06:23:05.240Z,20.17
2018-04-08T06:25:32.843Z,17.40
2018-04-08T06:28:01.190Z,19.40
2018-04-08T06:30:29.517Z,18.40
2018-04-08T06:32:57.796Z,17.67
2018-04-08T06:35:25.335Z,16.63
2018-04-08T06:37:53.627Z,16.93
2018-04-08T06:40:22.013Z,17.57
2018-04-08T06:42:50.350Z,17.80
2018-04-08T06:45:17.992Z,17.43
2018-04-08T06:47:45.596Z,17.83
2018-04-08T06:50:13.173Z,18.17
2018-04-08T06:52:41.493Z,19.50
2018-04-08T06:55:09.063Z,17.20
2018-04-08T06:57:40.632Z,16.07
2018-04-08T07:00:08.285Z,16.07
2018-04-08T07:02:35.845Z,18.10
2018-04-08T07:05:04.200Z,17.43
2018-04-08T07:07:32.511Z,16.97
2018-04-08T07:10:00.056Z,15.53
2018-04-08T07:12:28.346Z,15.33
2018-04-08T07:14:56.642Z,15.93
2018-04-08T07:17:24.185Z,15.80
2018-04-08T07:19:52.472Z,16.60
2018-04-08T07:22:20.780Z,15.47
2018-04-08T07:24:48.400Z,15.87
2018-04-08T07:27:15.887Z,15.73
2018-04-08T07:29:44.171Z,15.17
2018-04-08T07:32:13.029Z,14.67
2018-04-08T07:34:41.321Z,14.90
2018-04-08T07:37:09.642Z,15.13
2018-04-08T07:39:37.190Z,13.77
2018-04-08T07:42:05.475Z,14.67
2018-04-08T07:44:33.756Z,13.87
2018-04-08T07:47:02.058Z,13.23
2018-04-08T07:49:29.588Z,14.15
2018-04-08T07:51:58.004Z,14.60
2018-04-08T07:54:25.552Z,14.45
2018-04-08T07:56:53.084Z,13.02
2018-04-08T07:59:21.406Z,13.48
2018-04-08T08:01:48.990Z,12.35
2018-04-08T08:04:16.507Z,11.07
2018-04-08T08:06:44.796Z,11.25
2018-04-08T08:09:13.106Z,11.80
2018-04-08T08:11:40.614Z,9.65
2018-04-08T08:14:08.908Z,10.65
2018-04-08T08:16:37.228Z,10.40
2018-04-08T08:19:04.804Z,10.38
2018-04-08T08:21:32.333Z,10.73
2018-04-08T08:24:00.639Z,9.75
2018-04-08T08:26:28.169Z,9.73
2018-04-08T08:28:56.492Z,9.98
2018-04-08T08:31:24.056Z,10.48
2018-04-08T08:33:51.578Z,10.23
2018-04-08T08:36:20.044Z,9.45
2018-04-08T08:38:47.638Z,10.93
2018-04-08T08:41:15.946Z,9.30
2018-04-08T08:43:43.481Z,9.93
2018-04-08T08:46:11.812Z,10.13
2018-04-08T08:48:39.349Z,9.40
2018-04-08T08:51:06.930Z,10.25
2018-04-08T08:53:34.611Z,10.32
2018-04-08T08:56:02.164Z,10.07
2018-04-08T08:58:29.696Z,11.18
2018-04-08T09:00:57.282Z,10.43
2018-04-08T09:03:25.644Z,10.60
2018-04-08T09:05:53.928Z,9.55
2018-04-08T09:08:22.254Z,9.23
2018-04-08T09:10:49.772Z,10.45
2018-04-08T09:13:18.060Z,11.25
2018-04-08T09:15:46.382Z,9.60
2018-04-08T09:18:13.924Z,11.38
2018-04-08T09:21:00.360Z,10.65
2018-04-08T09:23:35.624Z,9.10
2018-04-08T09:26:03.942Z,9.93
2018-04-08T09:28:31.481Z,10.70
2018-04-08T09:30:59.771Z,10.15
2018-04-08T09:33:28.076Z,10.68
2018-04-08T09:35:55.634Z,11.10
2018-04-08T09:38:23.156Z,10.05
2018-04-08T09:40:51.464Z,8.68
2018-04-08T09:43:19.004Z,9.50
2018-04-08T09:45:48.472Z,9.68
2018-04-08T09:48:16.013Z,9.15
2018-04-08T09:50:43.544Z,9.52
2018-04-08T09:53:11.847Z,10.43
2018-04-08T09:55:39.731Z,10.55
2018-04-08T09:58:12.888Z,11.25
2018-04-08T10:00:47.036Z,10.20
2018-04-08T10:03:35.439Z,9.05
2018-04-08T10:06:03.002Z,8.57
2018-04-08T10:08:31.301Z,11.02
2018-04-08T10:10:59.583Z,9.13
2018-04-08T10:13:28.010Z,10.88
2018-04-08T10:15:55.543Z,10.30
2018-04-08T10:18:23.084Z,10.65
2018-04-08T10:20:51.425Z,10.10
2018-04-08T10:23:18.976Z,10.10
2018-04-08T10:25:46.495Z,9.25
2018-04-08T10:28:14.052Z,9.55
2018-04-08T10:30:43.129Z,8.98
2018-04-08T10:33:10.684Z,8.95
2018-04-08T10:35:38.230Z,10.70
2018-04-08T10:38:05.769Z,11.07
2018-04-08T10:40:34.078Z,10.55
2018-04-08T10:43:02.586Z,10.88
2018-04-08T10:45:30.884Z,10.40
2018-04-08T10:47:58.404Z,9.93
2018-04-08T10:50:26.698Z,9.10
2018-04-08T10:52:54.224Z,9.77
2018-04-08T10:55:22.518Z,8.60
2018-04-08T10:57:50.126Z,9.52
2018-04-08T11:00:17.658Z,8.35
2018-04-08T11:02:45.189Z,10.10
2018-04-08T11:05:13.507Z,8.73
2018-04-08T11:07:41.041Z,8.48
2018-04-08T11:10:09.383Z,8.10
2018-04-08T11:12:36.900Z,9.27
2018-04-08T11:15:04.440Z,8.55
2018-04-08T11:17:32.736Z,8.38
2018-04-08T11:20:01.063Z,8.90
2018-04-08T11:22:28.644Z,9.23
2018-04-08T11:24:56.132Z,8.88
2018-04-08T11:27:24.423Z,9.63
2018-04-08T11:29:52.724Z,8.82
2018-04-08T11:32:20.257Z,8.60
2018-04-08T11:34:48.582Z,8.13
2018-04-08T11:37:16.104Z,8.43
2018-04-08T11:39:44.395Z,7.32
2018-04-08T11:42:12.701Z,7.60
2018-04-08T11:44:40.225Z,8.55
2018-04-08T11:47:08.507Z,7.45
2018-04-08T11:49:36.040Z,9.20
2018-04-08T11:52:03.557Z,8.13
2018-04-08T11:54:31.841Z,8.90
2018-04-08T11:57:00.148Z,8.32
2018-04-08T11:59:27.729Z,9.18
2018-04-08T12:01:55.265Z,7.93
2018-04-08T12:04:22.805Z,8.40
2018-04-08T12:06:51.083Z,8.30
2018-04-08T12:09:18.595Z,8.30
2018-04-08T12:11:46.144Z,7.70
2018-04-08T12:14:14.718Z,9.00
2018-04-08T12:16:43.004Z,9.77
2018-04-08T12:19:10.600Z,8.23
2018-04-08T12:21:38.124Z,8.98
2018-04-08T12:24:06.413Z,8.90
2018-04-08T12:26:38.568Z,9.43
2018-04-08T12:29:06.864Z,9.15
2018-04-08T12:31:34.425Z,9.82
2018-04-08T12:34:01.988Z,8.07
2018-04-08T12:36:30.269Z,8.02
2018-04-08T12:38:58.551Z,8.80
2018-04-08T12:41:26.855Z,8.18
2018-04-08T12:43:54.446Z,8.23
2018-04-08T12:46:21.974Z,9.20
2018-04-08T12:48:49.512Z,9.18
2018-04-08T12:51:17.822Z,8.77
2018-04-08T12:53:45.352Z,9.88
2018-04-08T12:56:12.927Z,9.43
2018-04-08T12:58:41.253Z,8.82
2018-04-08T13:01:08.819Z,8.30
2018-04-08T13:03:36.369Z,9.55
2018-04-08T13:06:03.907Z,9.73
2018-04-08T13:08:32.187Z,10.38
2018-04-08T13:11:00.552Z,8.70
2018-04-08T13:13:28.075Z,8.23
2018-04-08T13:15:55.596Z,7.97
2018-04-08T13:18:23.910Z,8.27
2018-04-08T13:20:51.645Z,8.85
2018-04-08T13:23:19.920Z,6.87
2018-04-08T13:25:48.222Z,8.15
2018-04-08T13:28:15.746Z,7.50
2018-04-08T13:30:43.280Z,7.40
2018-04-08T13:33:10.852Z,8.40
2018-04-08T13:35:38.372Z,6.30
2018-04-08T13:38:06.689Z,7.85
2018-04-08T13:40:34.235Z,8.88
2018-04-08T13:43:01.768Z,7.97
2018-04-08T13:45:30.590Z,7.65
2018-04-08T13:47:58.124Z,7.82
2018-04-08T13:50:26.414Z,6.78
2018-04-08T13:52:56.503Z,8.38
2018-04-08T13:55:24.103Z,7.35
2018-04-08T13:57:52.392Z,6.37
2018-04-08T14:00:19.960Z,7.22
2018-04-08T14:02:48.440Z,8.05
2018-04-08T14:05:16.719Z,8.55
2018-04-08T14:07:45.005Z,8.10
2018-04-08T14:10:13.320Z,8.77
2018-04-08T14:12:40.877Z,7.75
2018-04-08T14:15:08.397Z,7.75
2018-04-08T14:17:35.993Z,7.10
2018-04-08T14:20:03.545Z,7.65
2018-04-08T14:22:31.066Z,7.20
2018-04-08T14:24:58.612Z,10.38
2018-04-08T14:27:26.132Z,7.75
2018-04-08T14:29:54.428Z,8.40
2018-04-08T14:32:21.983Z,8.25
2018-04-08T14:34:50.282Z,8.82
2018-04-08T14:37:17.829Z,8.55
2018-04-08T14:39:46.143Z,9.32
2018-04-08T14:42:14.142Z,9.38
2018-04-08T14:44:41.658Z,9.48
2018-04-08T14:47:11.315Z,8.63
2018-04-08T14:49:38.829Z,9.45
2018-04-08T14:52:07.130Z,10.65
2018-04-08T14:54:34.697Z,8.60
2018-04-08T14:57:02.219Z,9.27
2018-04-08T14:59:30.601Z,7.87
2018-04-08T15:01:59.249Z,8.75
2018-04-08T15:04:27.944Z,8.48
2018-04-08T15:06:55.573Z,8.02
2018-04-08T15:09:23.112Z,9.00
2018-04-08T15:11:51.053Z,7.75
2018-04-08T15:14:18.640Z,8.73
2018-04-08T15:16:47.687Z,10.52
2018-04-08T15:19:15.208Z,9.07
2018-04-08T15:21:42.725Z,7.93
2018-04-08T15:24:10.282Z,7.65
2018-04-08T15:26:37.955Z,7.28
2018-04-08T15:29:05.946Z,7.87
2018-04-08T15:31:33.504Z,7.53
2018-04-08T15:34:01.863Z,7.87
2018-04-08T15:36:30.596Z,9.18
2018-04-08T15:38:58.177Z,7.68
2018-04-08T15:41:26.533Z,8.05
2018-04-08T15:43:54.069Z,8.38
2018-04-08T15:46:22.571Z,8.07
2018-04-08T15:48:50.173Z,10.27
2018-04-08T15:51:18.487Z,8.50
2018-04-08T15:56:32.336Z,7.93
2018-04-08T15:59:00.647Z,7.62
2018-04-08T16:01:28.207Z,7.47
2018-04-08T16:03:55.758Z,9.05
2018-04-08T16:06:24.253Z,8.10
2018-04-08T16:08:51.768Z,8.23
2018-04-08T16:11:19.973Z,9.82
2018-04-08T16:13:48.362Z,7.80
2018-04-08T16:16:18.738Z,7.50
2018-04-08T16:18:46.273Z,7.82
2018-04-08T16:21:13.819Z,7.63
2018-04-08T16:23:42.120Z,7.62
2018-04-08T16:26:09.642Z,7.55
2018-04-08T16:28:37.953Z,6.82
2018-04-08T16:31:05.485Z,6.62
2018-04-08T16:33:34.526Z,6.07
2018-04-08T16:36:02.067Z,9.00
2018-04-08T16:41:13.240Z,7.00
2018-04-08T16:43:40.813Z,7.82
2018-04-08T16:46:08.451Z,7.07
2018-04-08T16:48:36.068Z,7.10
2018-04-08T16:51:04.360Z,6.37
2018-04-08T16:53:31.886Z,5.90
2018-04-08T16:55:59.449Z,8.40
2018-04-08T16:58:30.081Z,6.80
2018-04-08T17:00:57.626Z,6.40
2018-04-08T17:03:25.216Z,6.13
2018-04-08T17:05:54.241Z,5.70
2018-04-08T17:08:22.639Z,6.07
2018-04-08T17:10:50.281Z,6.37
2018-04-08T17:13:18.578Z,8.07
2018-04-08T17:15:46.107Z,6.60
2018-04-08T17:18:14.784Z,5.40
2018-04-08T17:20:42.339Z,12.23
2018-04-08T17:23:09.852Z,5.50
2018-04-08T17:25:38.159Z,5.77
2018-04-08T17:28:05.681Z,6.20
2018-04-08T17:30:33.223Z,5.63
2018-04-08T17:33:00.775Z,6.40
2018-04-08T17:35:28.301Z,5.77
2018-04-08T17:37:55.836Z,6.70
2018-04-08T17:40:23.363Z,6.47
2018-04-08T17:42:51.105Z,6.00
2018-04-08T17:45:18.817Z,6.90
2018-04-08T17:47:46.361Z,6.63
2018-04-08T17:59:12.946Z,5.23
2018-04-08T18:01:40.471Z,7.73
2018-04-08T18:04:08.182Z,7.60
2018-04-08T18:06:36.007Z,7.10
2018-04-08T18:09:03.690Z,6.20
2018-04-08T18:11:31.239Z,5.80
2018-04-08T18:13:59.784Z,5.70
2018-04-08T18:16:28.815Z,6.27
2018-04-08T18:19:03.932Z,6.13
2018-04-08T18:21:32.420Z,6.70
2018-04-08T18:23:59.968Z,6.40
2018-04-08T18:26:29.518Z,6.00
2018-04-08T18:28:57.994Z,6.10
2018-04-08T18:31:26.296Z,7.00
2018-04-08T18:33:53.831Z,6.80
2018-04-08T18:36:22.152Z,7.20
2018-04-08T18:38:49.688Z,6.97
2018-04-08T18:41:17.573Z,8.90
2018-04-08T18:43:46.136Z,9.97
2018-04-08T18:46:16.134Z,7.67
2018-04-08T18:48:45.400Z,8.37
2018-04-08T18:53:53.587Z,7.80
2018-04-08T18:56:22.028Z,8.33
2018-04-08T18:58:49.559Z,7.53
2018-04-08T19:01:17.196Z,8.20
2018-04-08T19:03:45.567Z,9.37
2018-04-08T19:06:16.022Z,10.20
2018-04-08T19:08:44.707Z,11.63
2018-04-08T19:11:12.308Z,10.03
2018-04-08T19:13:39.884Z,9.33
2018-04-08T19:16:07.495Z,10.30
2018-04-08T19:18:35.819Z,11.13
2018-04-08T19:21:03.380Z,10.37
2018-04-08T19:23:30.911Z,10.90
2018-04-08T19:25:58.476Z,10.80
2018-04-08T19:28:26.751Z,11.40
2018-04-08T19:30:55.051Z,11.27
2018-04-08T19:33:22.567Z,10.63
2018-04-08T19:35:51.642Z,10.70
2018-04-08T19:38:19.211Z,11.47
2018-04-08T19:40:46.741Z,11.97
2018-04-08T19:43:14.264Z,12.00
2018-04-08T19:45:41.815Z,11.80
2018-04-08T19:48:09.356Z,11.57
2018-04-08T19:50:36.886Z,11.97
2018-04-08T19:53:05.192Z,11.30
2018-04-08T19:55:32.716Z,12.03
2018-04-08T19:58:01.015Z,11.57
2018-04-08T20:00:29.321Z,12.80
2018-04-08T20:05:55.416Z,13.10
2018-04-08T20:08:22.972Z,12.63
2018-04-08T20:10:50.533Z,13.27
2018-04-08T20:13:21.445Z,13.23
2018-04-08T20:16:09.663Z,13.70
2018-04-08T20:18:39.026Z,14.00
2018-04-08T20:21:07.308Z,13.60
2018-04-08T20:23:34.842Z,13.77
2018-04-08T20:26:02.383Z,13.70
2018-04-08T20:28:29.941Z,13.87
2018-04-08T20:30:57.490Z,13.43
2018-04-08T20:33:25.060Z,13.70
2018-04-08T20:35:52.608Z,14.47
2018-04-08T20:38:20.895Z,13.30
2018-04-08T20:40:48.466Z,12.87
2018-04-08T20:43:16.746Z,13.73
2018-04-08T20:45:45.063Z,14.73
2018-04-08T20:48:12.678Z,13.47
2018-04-08T20:50:40.974Z,14.07
2018-04-08T20:53:08.538Z,14.40
2018-04-08T20:55:36.858Z,13.27
2018-04-08T20:58:04.511Z,15.27
2018-04-08T21:00:32.140Z,13.83
2018-04-08T21:03:00.462Z,15.43
2018-04-08T21:05:27.991Z,15.73
2018-04-08T21:07:56.464Z,15.23
2018-04-08T21:10:24.075Z,15.37
2018-04-08T21:12:51.625Z,17.10
2018-04-08T21:15:19.236Z,15.23
2018-04-08T21:17:46.821Z,15.90
2018-04-08T21:20:14.472Z,15.07
2018-04-08T21:22:42.057Z,16.60
2018-04-08T21:25:10.397Z,14.83
2018-04-08T21:27:37.986Z,14.90
2018-04-08T21:30:05.545Z,14.83
2018-04-08T21:32:33.103Z,14.63
2018-04-08T21:35:00.621Z,13.63
2018-04-08T21:37:28.151Z,13.73
2018-04-08T21:39:55.730Z,13.77
2018-04-08T21:42:23.258Z,15.87
2018-04-08T21:44:50.768Z,14.03
2018-04-08T21:47:19.072Z,15.87
2018-04-08T21:49:46.600Z,14.90
2018-04-08T21:52:14.870Z,14.00
2018-04-08T21:54:42.435Z,14.53
2018-04-08T21:57:11.458Z,13.63
2018-04-08T21:59:39.753Z,13.33
2018-04-08T22:02:08.052Z,15.00
2018-04-08T22:04:35.566Z,14.17
2018-04-08T22:07:03.865Z,14.30
2018-04-08T22:09:32.267Z,14.17
2018-04-08T22:11:59.804Z,13.77
2018-04-08T22:14:28.091Z,14.10
2018-04-08T22:16:56.402Z,15.27
2018-04-08T22:19:23.914Z,13.60
2018-04-08T22:21:52.209Z,14.13
2018-04-08T22:24:19.735Z,14.03
2018-04-08T22:26:47.284Z,13.47
2018-04-08T22:29:14.801Z,14.30
2018-04-08T22:31:42.402Z,15.93
2018-04-08T22:34:09.906Z,16.20
2018-04-08T22:36:37.418Z,15.60
2018-04-08T22:39:05.736Z,15.17
2018-04-08T22:41:33.247Z,14.23
2018-04-08T22:44:01.527Z,14.40
2018-04-08T22:46:29.105Z,14.47
2018-04-08T22:48:58.394Z,15.60
2018-04-08T22:51:25.911Z,15.97
2018-04-08T22:53:53.446Z,15.80
2018-04-08T22:56:20.987Z,15.17
2018-04-08T22:58:48.515Z,18.47
2018-04-08T23:01:16.050Z,15.50
2018-04-08T23:03:43.558Z,15.17
2018-04-08T23:06:11.076Z,15.87
2018-04-08T23:08:38.623Z,17.13
2018-04-08T23:11:07.051Z,16.20
2018-04-08T23:13:34.563Z,17.80
2018-04-08T23:16:02.860Z,15.63
2018-04-08T23:18:30.386Z,16.30
2018-04-08T23:20:57.900Z,17.23
2018-04-08T23:23:25.435Z,18.10
2018-04-08T23:25:53.766Z,17.70
2018-04-08T23:28:21.424Z,17.17
2018-04-08T23:30:48.957Z,17.53
2018-04-08T23:33:17.491Z,16.17
2018-04-08T23:35:45.025Z,16.93
2018-04-08T23:38:12.575Z,17.40
2018-04-08T23:40:40.859Z,15.70
2018-04-08T23:43:08.363Z,15.97
2018-04-08T23:45:36.178Z,17.03
2018-04-08T23:48:04.481Z,16.90
2018-04-08T23:50:32.007Z,18.93
2018-04-08T23:53:00.445Z,16.33
2018-04-08T23:55:30.058Z,17.03
2018-04-08T23:57:57.849Z,16.17
